sensor_id;sensor_type;location;lat;lon;timestamp;pressure;altitude;pressure_sealevel;temperature
19061;BMP280;9663;48.996;8.334;2022-12-29T00:00:00;99725.13;;;17.58
19061;BMP280;9663;48.996;8.334;2022-12-29T00:02:26;99716.47;;;17.60
19061;BMP280;9663;48.996;8.334;2022-12-29T00:04:52;99735.28;;;17.61
19061;BMP280;9663;48.996;8.334;2022-12-29T00:07:18;99715.53;;;17.63
19061;BMP280;9663;48.996;8.334;2022-12-29T00:09:44;99714.53;;;17.65
19061;BMP280;9663;48.996;8.334;2022-12-29T00:12:10;99713.66;;;17.66
19061;BMP280;9663;48.996;8.334;2022-12-29T00:14:35;99711.09;;;17.66
19061;BMP280;9663;48.996;8.334;2022-12-29T00:17:20;99720.47;;;17.67
19061;BMP280;9663;48.996;8.334;2022-12-29T00:19:45;99727.31;;;17.67
19061;BMP280;9663;48.996;8.334;2022-12-29T00:22:29;99723.03;;;17.67
19061;BMP280;9663;48.996;8.334;2022-12-29T00:25:14;99720.59;;;17.64
19061;BMP280;9663;48.996;8.334;2022-12-29T00:27:59;99724.03;;;17.63
19061;BMP280;9663;48.996;8.334;2022-12-29T00:30:43;99725.84;;;17.61
19061;BMP280;9663;48.996;8.334;2022-12-29T00:33:33;99737.69;;;17.64
19061;BMP280;9663;48.996;8.334;2022-12-29T00:36:35;99736.97;;;17.60
19061;BMP280;9663;48.996;8.334;2022-12-29T00:39:16;99737.78;;;17.62
19061;BMP280;9663;48.996;8.334;2022-12-29T00:42:07;99727.56;;;17.61
19061;BMP280;9663;48.996;8.334;2022-12-29T00:44:51;99731.84;;;17.60
19061;BMP280;9663;48.996;8.334;2022-12-29T00:47:17;99742.91;;;17.62
19061;BMP280;9663;48.996;8.334;2022-12-29T00:49:43;99734.28;;;17.63
19061;BMP280;9663;48.996;8.334;2022-12-29T00:52:11;99731.78;;;17.62
19061;BMP280;9663;48.996;8.334;2022-12-29T00:54:39;99737.84;;;17.61
19061;BMP280;9663;48.996;8.334;2022-12-29T00:57:07;99744.66;;;17.60
19061;BMP280;9663;48.996;8.334;2022-12-29T00:59:39;99746.47;;;17.58
19061;BMP280;9663;48.996;8.334;2022-12-29T01:02:05;99743.19;;;17.55
19061;BMP280;9663;48.996;8.334;2022-12-29T01:04:31;99741.66;;;17.51
19061;BMP280;9663;48.996;8.334;2022-12-29T01:06:57;99750.28;;;17.49
19061;BMP280;9663;48.996;8.334;2022-12-29T01:09:23;99749.63;;;17.44
19061;BMP280;9663;48.996;8.334;2022-12-29T01:12:08;99747.19;;;17.41
19061;BMP280;9663;48.996;8.334;2022-12-29T01:14:36;99749.00;;;17.39
19061;BMP280;9663;48.996;8.334;2022-12-29T01:17:02;99749.97;;;17.36
19061;BMP280;9663;48.996;8.334;2022-12-29T01:19:28;99743.09;;;17.37
19061;BMP280;9663;48.996;8.334;2022-12-29T01:21:53;99738.97;;;17.33
19061;BMP280;9663;48.996;8.334;2022-12-29T01:24:20;99743.25;;;17.32
19061;BMP280;9663;48.996;8.334;2022-12-29T01:26:47;99738.13;;;17.32
19061;BMP280;9663;48.996;8.334;2022-12-29T01:29:14;99739.94;;;17.30
19061;BMP280;9663;48.996;8.334;2022-12-29T01:31:39;99738.25;;;17.29
19061;BMP280;9663;48.996;8.334;2022-12-29T01:34:05;99731.41;;;17.30
19061;BMP280;9663;48.996;8.334;2022-12-29T01:36:32;99737.38;;;17.30
19061;BMP280;9663;48.996;8.334;2022-12-29T01:38:58;99745.13;;;17.29
19061;BMP280;9663;48.996;8.334;2022-12-29T01:41:23;99746.00;;;17.28
19061;BMP280;9663;48.996;8.334;2022-12-29T01:43:53;99742.50;;;17.30
19061;BMP280;9663;48.996;8.334;2022-12-29T01:49:04;99736.72;;;17.25
19061;BMP280;9663;48.996;8.334;2022-12-29T01:51:57;99739.34;;;17.24
19061;BMP280;9663;48.996;8.334;2022-12-29T01:54:48;99733.28;;;17.26
19061;BMP280;9663;48.996;8.334;2022-12-29T01:57:22;99731.53;;;17.27
19061;BMP280;9663;48.996;8.334;2022-12-29T01:59:57;99731.53;;;17.27
19061;BMP280;9663;48.996;8.334;2022-12-29T02:02:24;99722.94;;;17.28
19061;BMP280;9663;48.996;8.334;2022-12-29T02:04:52;99722.09;;;17.27
19061;BMP280;9663;48.996;8.334;2022-12-29T02:07:22;99722.09;;;17.27
19061;BMP280;9663;48.996;8.334;2022-12-29T02:09:51;99710.13;;;17.28
19061;BMP280;9663;48.996;8.334;2022-12-29T02:12:21;99720.38;;;17.28
19061;BMP280;9663;48.996;8.334;2022-12-29T02:14:54;99731.47;;;17.28
19061;BMP280;9663;48.996;8.334;2022-12-29T02:17:59;99717.94;;;17.25
19061;BMP280;9663;48.996;8.334;2022-12-29T02:24:00;99717.03;;;17.26
19061;BMP280;9663;48.996;8.334;2022-12-29T02:35:35;99709.28;;;17.27
19061;BMP280;9663;48.996;8.334;2022-12-29T02:40:48;99699.88;;;17.28
19061;BMP280;9663;48.996;8.334;2022-12-29T02:49:13;99691.25;;;17.30
19061;BMP280;9663;48.996;8.334;2022-12-29T02:52:01;99684.50;;;17.28
19061;BMP280;9663;48.996;8.334;2022-12-29T02:54:28;99689.56;;;17.29
19061;BMP280;9663;48.996;8.334;2022-12-29T03:00:10;99688.19;;;17.21
19061;BMP280;9663;48.996;8.334;2022-12-29T03:08:54;99684.28;;;17.11
19061;BMP280;9663;48.996;8.334;2022-12-29T03:11:25;99679.00;;;17.15
19061;BMP280;9663;48.996;8.334;2022-12-29T03:17:18;99666.94;;;17.19
19061;BMP280;9663;48.996;8.334;2022-12-29T03:19:51;99659.84;;;17.25
19061;BMP280;9663;48.996;8.334;2022-12-29T03:22:25;99660.53;;;17.29
19061;BMP280;9663;48.996;8.334;2022-12-29T03:24:58;99663.88;;;17.31
19061;BMP280;9663;48.996;8.334;2022-12-29T03:27:41;99667.13;;;17.34
19061;BMP280;9663;48.996;8.334;2022-12-29T03:30:08;99655.03;;;17.38
19061;BMP280;9663;48.996;8.334;2022-12-29T03:32:44;99658.38;;;17.40
19061;BMP280;9663;48.996;8.334;2022-12-29T03:35:15;99661.72;;;17.42
19061;BMP280;9663;48.996;8.334;2022-12-29T03:38:09;99655.81;;;17.40
19061;BMP280;9663;48.996;8.334;2022-12-29T03:40:40;99660.81;;;17.43
19061;BMP280;9663;48.996;8.334;2022-12-29T03:43:07;99652.28;;;17.42
19061;BMP280;9663;48.996;8.334;2022-12-29T03:45:34;99623.31;;;17.40
19061;BMP280;9663;48.996;8.334;2022-12-29T03:47:59;99626.94;;;17.36
19061;BMP280;9663;48.996;8.334;2022-12-29T03:50:25;99631.31;;;17.33
19061;BMP280;9663;48.996;8.334;2022-12-29T03:52:51;99624.78;;;17.26
19061;BMP280;9663;48.996;8.334;2022-12-29T03:55:16;99628.50;;;17.19
19061;BMP280;9663;48.996;8.334;2022-12-29T03:57:42;99621.91;;;17.12
19061;BMP280;9663;48.996;8.334;2022-12-29T04:00:09;99627.16;;;17.09
19061;BMP280;9663;48.996;8.334;2022-12-29T04:02:34;99629.78;;;17.08
19061;BMP280;9663;48.996;8.334;2022-12-29T04:05:00;99620.41;;;17.07
19061;BMP280;9663;48.996;8.334;2022-12-29T04:07:25;99635.88;;;17.05
19061;BMP280;9663;48.996;8.334;2022-12-29T04:09:51;99617.03;;;17.06
19061;BMP280;9663;48.996;8.334;2022-12-29T04:12:17;99620.41;;;17.07
19061;BMP280;9663;48.996;8.334;2022-12-29T04:14:42;99615.28;;;17.07
19061;BMP280;9663;48.996;8.334;2022-12-29T04:17:08;99617.84;;;17.07
19061;BMP280;9663;48.996;8.334;2022-12-29T04:19:34;99621.22;;;17.09
19061;BMP280;9663;48.996;8.334;2022-12-29T04:21:59;99621.28;;;17.07
19061;BMP280;9663;48.996;8.334;2022-12-29T04:24:25;99611.78;;;17.09
19061;BMP280;9663;48.996;8.334;2022-12-29T04:26:51;99602.38;;;17.09
19061;BMP280;9663;48.996;8.334;2022-12-29T04:29:16;99598.97;;;17.09
19061;BMP280;9663;48.996;8.334;2022-12-29T04:31:42;99603.22;;;17.10
19061;BMP280;9663;48.996;8.334;2022-12-29T04:34:07;99609.16;;;17.10
19061;BMP280;9663;48.996;8.334;2022-12-29T04:36:33;99603.22;;;17.10
19061;BMP280;9663;48.996;8.334;2022-12-29T04:38:59;99602.44;;;17.08
19061;BMP280;9663;48.996;8.334;2022-12-29T04:41:25;99606.84;;;17.05
19061;BMP280;9663;48.996;8.334;2022-12-29T04:43:51;99601.78;;;17.03
19061;BMP280;9663;48.996;8.334;2022-12-29T04:46:17;99592.44;;;17.02
19061;BMP280;9663;48.996;8.334;2022-12-29T04:48:42;99604.34;;;17.03
19061;BMP280;9663;48.996;8.334;2022-12-29T04:51:08;99596.47;;;17.08
19061;BMP280;9663;48.996;8.334;2022-12-29T04:53:34;99604.03;;;17.10
19061;BMP280;9663;48.996;8.334;2022-12-29T04:55:59;99612.50;;;17.12
19061;BMP280;9663;48.996;8.334;2022-12-29T04:58:25;99610.66;;;17.16
19061;BMP280;9663;48.996;8.334;2022-12-29T05:00:51;99613.16;;;17.17
19061;BMP280;9663;48.996;8.334;2022-12-29T05:03:18;99601.06;;;17.21
19061;BMP280;9663;48.996;8.334;2022-12-29T05:05:43;99601.06;;;17.21
19061;BMP280;9663;48.996;8.334;2022-12-29T05:08:09;99612.88;;;17.25
19061;BMP280;9663;48.996;8.334;2022-12-29T05:10:35;99601.72;;;17.26
19061;BMP280;9663;48.996;8.334;2022-12-29T05:13:01;99610.16;;;17.28
19061;BMP280;9663;48.996;8.334;2022-12-29T05:15:26;99593.91;;;17.29
19061;BMP280;9663;48.996;8.334;2022-12-29T05:17:52;99598.16;;;17.30
19061;BMP280;9663;48.996;8.334;2022-12-29T05:20:18;99603.28;;;17.30
19061;BMP280;9663;48.996;8.334;2022-12-29T05:22:44;99580.22;;;17.30
19061;BMP280;9663;48.996;8.334;2022-12-29T05:25:09;99584.38;;;17.32
19061;BMP280;9663;48.996;8.334;2022-12-29T05:27:35;99581.78;;;17.32
19061;BMP280;9663;48.996;8.334;2022-12-29T05:30:01;99581.69;;;17.35
19061;BMP280;9663;48.996;8.334;2022-12-29T05:32:27;99579.06;;;17.37
19061;BMP280;9663;48.996;8.334;2022-12-29T05:34:53;99574.75;;;17.37
19061;BMP280;9663;48.996;8.334;2022-12-29T05:37:18;99577.31;;;17.37
19061;BMP280;9663;48.996;8.334;2022-12-29T05:39:44;99576.44;;;17.38
19061;BMP280;9663;48.996;8.334;2022-12-29T05:42:10;99585.75;;;17.39
19061;BMP280;9663;48.996;8.334;2022-12-29T05:44:35;99584.94;;;17.39
19061;BMP280;9663;48.996;8.334;2022-12-29T05:47:01;99584.13;;;17.38
19061;BMP280;9663;48.996;8.334;2022-12-29T05:49:27;99589.38;;;17.35
19061;BMP280;9663;48.996;8.334;2022-12-29T05:51:52;99587.84;;;17.31
19061;BMP280;9663;48.996;8.334;2022-12-29T05:54:18;99580.34;;;17.27
19061;BMP280;9663;48.996;8.334;2022-12-29T05:56:44;99587.25;;;17.25
19061;BMP280;9663;48.996;8.334;2022-12-29T05:59:09;99577.88;;;17.24
19061;BMP280;9663;48.996;8.334;2022-12-29T06:01:35;99574.63;;;17.20
19061;BMP280;9663;48.996;8.334;2022-12-29T06:04:01;99572.16;;;17.17
19061;BMP280;9663;48.996;8.334;2022-12-29T06:06:26;99571.38;;;17.15
19061;BMP280;9663;48.996;8.334;2022-12-29T06:08:52;99603.88;;;17.15
19061;BMP280;9663;48.996;8.334;2022-12-29T06:11:18;99610.66;;;17.16
19061;BMP280;9663;48.996;8.334;2022-12-29T06:13:44;99597.84;;;17.16
19061;BMP280;9663;48.996;8.334;2022-12-29T06:16:09;99598.56;;;17.19
19061;BMP280;9663;48.996;8.334;2022-12-29T06:18:35;99586.47;;;17.23
19061;BMP280;9663;48.996;8.334;2022-12-29T06:21:03;99593.16;;;17.27
19061;BMP280;9663;48.996;8.334;2022-12-29T06:23:29;99593.84;;;17.30
19061;BMP280;9663;48.996;8.334;2022-12-29T06:25:55;99589.44;;;17.34
19061;BMP280;9663;48.996;8.334;2022-12-29T06:28:20;99584.13;;;17.38
19061;BMP280;9663;48.996;8.334;2022-12-29T06:30:46;99567.69;;;17.42
19061;BMP280;9663;48.996;8.334;2022-12-29T06:33:13;99564.19;;;17.45
19061;BMP280;9663;48.996;8.334;2022-12-29T06:35:38;99570.97;;;17.46
19061;BMP280;9663;48.996;8.334;2022-12-29T06:38:04;99565.72;;;17.49
19061;BMP280;9663;48.996;8.334;2022-12-29T06:40:31;99563.09;;;17.50
19061;BMP280;9663;48.996;8.334;2022-12-29T06:42:56;99557.97;;;17.50
19061;BMP280;9663;48.996;8.334;2022-12-29T06:45:22;99555.47;;;17.49
19061;BMP280;9663;48.996;8.334;2022-12-29T06:47:48;99566.63;;;17.48
19061;BMP280;9663;48.996;8.334;2022-12-29T06:50:14;99560.78;;;17.44
19061;BMP280;9663;48.996;8.334;2022-12-29T06:52:40;99559.19;;;17.42
19061;BMP280;9663;48.996;8.334;2022-12-29T06:55:06;99545.53;;;17.41
19061;BMP280;9663;48.996;8.334;2022-12-29T06:57:32;99560.06;;;17.41
19061;BMP280;9663;48.996;8.334;2022-12-29T06:59:57;99561.75;;;17.42
19061;BMP280;9663;48.996;8.334;2022-12-29T07:02:23;99560.84;;;17.43
19061;BMP280;9663;48.996;8.334;2022-12-29T07:04:52;99592.44;;;17.43
19061;BMP280;9663;48.996;8.334;2022-12-29T07:07:21;99564.94;;;17.47
19061;BMP280;9663;48.996;8.334;2022-12-29T07:09:47;99569.09;;;17.49
19061;BMP280;9663;48.996;8.334;2022-12-29T07:12:12;99570.78;;;17.50
19061;BMP280;9663;48.996;8.334;2022-12-29T07:14:38;99566.47;;;17.51
19061;BMP280;9663;48.996;8.334;2022-12-29T07:17:05;99572.53;;;17.50
19061;BMP280;9663;48.996;8.334;2022-12-29T07:19:32;99573.28;;;17.52
19061;BMP280;9663;48.996;8.334;2022-12-29T07:21:58;99568.16;;;17.52
19061;BMP280;9663;48.996;8.334;2022-12-29T07:24:24;99579.22;;;17.52
19061;BMP280;9663;48.996;8.334;2022-12-29T07:26:53;99585.28;;;17.51
19061;BMP280;9663;48.996;8.334;2022-12-29T07:29:19;99574.16;;;17.51
19061;BMP280;9663;48.996;8.334;2022-12-29T07:31:44;99575.91;;;17.50
19061;BMP280;9663;48.996;8.334;2022-12-29T07:34:10;99575.97;;;17.49
19061;BMP280;9663;48.996;8.334;2022-12-29T07:36:36;99569.91;;;17.51
19061;BMP280;9663;48.996;8.334;2022-12-29T07:39:03;99580.00;;;17.54
19061;BMP280;9663;48.996;8.334;2022-12-29T07:41:29;99575.66;;;17.56
19061;BMP280;9663;48.996;8.334;2022-12-29T07:43:54;99581.47;;;17.59
19061;BMP280;9663;48.996;8.334;2022-12-29T07:46:20;99579.69;;;17.61
19061;BMP280;9663;48.996;8.334;2022-12-29T07:48:46;99587.25;;;17.64
19061;BMP280;9663;48.996;8.334;2022-12-29T07:51:12;99581.06;;;17.68
19061;BMP280;9663;48.996;8.334;2022-12-29T07:53:38;99586.97;;;17.70
19061;BMP280;9663;48.996;8.334;2022-12-29T07:56:04;99592.94;;;17.71
19061;BMP280;9663;48.996;8.334;2022-12-29T07:58:29;99590.31;;;17.72
19061;BMP280;9663;48.996;8.334;2022-12-29T08:00:56;99605.72;;;17.72
19061;BMP280;9663;48.996;8.334;2022-12-29T08:03:22;99595.44;;;17.72
19061;BMP280;9663;48.996;8.334;2022-12-29T08:05:49;99591.97;;;17.73
19061;BMP280;9663;48.996;8.334;2022-12-29T08:08:14;99615.06;;;17.73
19061;BMP280;9663;48.996;8.334;2022-12-29T08:10:40;99608.91;;;17.77
19061;BMP280;9663;48.996;8.334;2022-12-29T08:13:06;99624.06;;;17.82
19061;BMP280;9663;48.996;8.334;2022-12-29T08:15:31;99631.66;;;17.85
19061;BMP280;9663;48.996;8.334;2022-12-29T08:17:57;99623.81;;;17.88
19061;BMP280;9663;48.996;8.334;2022-12-29T08:20:23;99622.03;;;17.90
19061;BMP280;9663;48.996;8.334;2022-12-29T08:22:48;99643.19;;;17.95
19061;BMP280;9663;48.996;8.334;2022-12-29T08:25:14;99628.47;;;17.98
19061;BMP280;9663;48.996;8.334;2022-12-29T08:27:40;99644.50;;;18.03
19061;BMP280;9663;48.996;8.334;2022-12-29T08:30:07;99653.75;;;18.07
19061;BMP280;9663;48.996;8.334;2022-12-29T08:32:33;99645.94;;;18.10
19061;BMP280;9663;48.996;8.334;2022-12-29T08:34:59;99662.00;;;18.15
19061;BMP280;9663;48.996;8.334;2022-12-29T08:37:25;99656.72;;;18.18
19061;BMP280;9663;48.996;8.334;2022-12-29T08:39:50;99658.31;;;18.20
19061;BMP280;9663;48.996;8.334;2022-12-29T08:42:16;99651.31;;;18.24
19061;BMP280;9663;48.996;8.334;2022-12-29T08:44:41;99652.00;;;18.27
19061;BMP280;9663;48.996;8.334;2022-12-29T08:47:10;99650.13;;;18.31
19061;BMP280;9663;48.996;8.334;2022-12-29T08:49:36;99645.63;;;18.36
19061;BMP280;9663;48.996;8.334;2022-12-29T08:52:02;99648.00;;;18.40
19061;BMP280;9663;48.996;8.334;2022-12-29T08:54:28;99653.81;;;18.43
19061;BMP280;9663;48.996;8.334;2022-12-29T08:56:53;99655.50;;;18.44
19061;BMP280;9663;48.996;8.334;2022-12-29T08:59:19;99676.81;;;18.46
19061;BMP280;9663;48.996;8.334;2022-12-29T09:01:45;99655.44;;;18.46
19061;BMP280;9663;48.996;8.334;2022-12-29T09:04:11;99657.84;;;18.49
19061;BMP280;9663;48.996;8.334;2022-12-29T09:06:37;99637.16;;;18.52
19061;BMP280;9663;48.996;8.334;2022-12-29T09:09:03;99637.91;;;18.54
19061;BMP280;9663;48.996;8.334;2022-12-29T09:11:28;99661.94;;;18.53
19061;BMP280;9663;48.996;8.334;2022-12-29T09:13:55;99663.47;;;18.57
19061;BMP280;9663;48.996;8.334;2022-12-29T09:16:23;99670.84;;;18.64
19061;BMP280;9663;48.996;8.334;2022-12-29T09:18:49;99662.06;;;18.68
19061;BMP280;9663;48.996;8.334;2022-12-29T09:21:15;99661.06;;;18.72
19061;BMP280;9663;48.996;8.334;2022-12-29T09:23:41;99663.47;;;18.75
19061;BMP280;9663;48.996;8.334;2022-12-29T09:26:07;99661.69;;;18.77
19061;BMP280;9663;48.996;8.334;2022-12-29T09:28:33;99669.16;;;18.82
19061;BMP280;9663;48.996;8.334;2022-12-29T09:31:00;99683.31;;;18.90
19061;BMP280;9663;48.996;8.334;2022-12-29T09:33:26;99689.72;;;19.00
19061;BMP280;9663;48.996;8.334;2022-12-29T09:35:57;99671.31;;;19.09
19061;BMP280;9663;48.996;8.334;2022-12-29T09:38:25;99681.44;;;19.12
19061;BMP280;9663;48.996;8.334;2022-12-29T09:41:10;99686.81;;;19.07
19061;BMP280;9663;48.996;8.334;2022-12-29T09:44:15;99686.25;;;19.01
19061;BMP280;9663;48.996;8.334;2022-12-29T09:46:49;99690.31;;;19.05
19061;BMP280;9663;48.996;8.334;2022-12-29T09:49:44;99677.66;;;19.02
19061;BMP280;9663;48.996;8.334;2022-12-29T09:52:30;99688.75;;;19.02
19061;BMP280;9663;48.996;8.334;2022-12-29T09:55:02;99720.22;;;19.07
19061;BMP280;9663;48.996;8.334;2022-12-29T10:00:22;99700.34;;;19.11
19061;BMP280;9663;48.996;8.334;2022-12-29T10:03:06;99700.25;;;19.12
19061;BMP280;9663;48.996;8.334;2022-12-29T10:11:52;99736.09;;;18.97
19061;BMP280;9663;48.996;8.334;2022-12-29T10:14:33;99704.63;;;18.92
19061;BMP280;9663;48.996;8.334;2022-12-29T10:17:55;99721.59;;;18.78
19061;BMP280;9663;48.996;8.334;2022-12-29T10:20:31;99731.22;;;18.73
19061;BMP280;9663;48.996;8.334;2022-12-29T10:23:36;99729.28;;;18.59
19061;BMP280;9663;48.996;8.334;2022-12-29T10:26:16;99735.50;;;18.54
19061;BMP280;9663;48.996;8.334;2022-12-29T10:29:03;99728.16;;;18.46
19061;BMP280;9663;48.996;8.334;2022-12-29T10:31:44;99731.75;;;18.42
19061;BMP280;9663;48.996;8.334;2022-12-29T10:34:27;99719.53;;;18.47
19061;BMP280;9663;48.996;8.334;2022-12-29T10:37:40;99719.28;;;18.53
19061;BMP280;9663;48.996;8.334;2022-12-29T10:40:22;99720.81;;;18.57
19061;BMP280;9663;48.996;8.334;2022-12-29T10:42:54;99715.47;;;18.62
19061;BMP280;9663;48.996;8.334;2022-12-29T10:45:27;99725.66;;;18.63
19061;BMP280;9663;48.996;8.334;2022-12-29T10:48:40;99714.75;;;18.58
19061;BMP280;9663;48.996;8.334;2022-12-29T10:51:29;99715.19;;;18.68
19061;BMP280;9663;48.996;8.334;2022-12-29T10:54:16;99732.34;;;18.67
19061;BMP280;9663;48.996;8.334;2022-12-29T10:56:52;99715.88;;;18.71
19061;BMP280;9663;48.996;8.334;2022-12-29T10:59:30;99724.09;;;18.79
19061;BMP280;9663;48.996;8.334;2022-12-29T11:05:15;99701.22;;;18.91
19061;BMP280;9663;48.996;8.334;2022-12-29T11:07:50;99712.38;;;19.10
19061;BMP280;9663;48.996;8.334;2022-12-29T11:10:40;99704.88;;;19.23
19061;BMP280;9663;48.996;8.334;2022-12-29T11:13:18;99705.00;;;19.38
19061;BMP280;9663;48.996;8.334;2022-12-29T11:15:49;99704.47;;;19.48
19061;BMP280;9663;48.996;8.334;2022-12-29T11:18:36;99710.78;;;19.60
19061;BMP280;9663;48.996;8.334;2022-12-29T11:24:02;99717.44;;;20.14
19061;BMP280;9663;48.996;8.334;2022-12-29T11:26:30;99705.25;;;20.82
19061;BMP280;9663;48.996;8.334;2022-12-29T11:31:43;99711.50;;;22.11
19061;BMP280;9663;48.996;8.334;2022-12-29T11:34:17;99710.06;;;22.63
19061;BMP280;9663;48.996;8.334;2022-12-29T11:36:43;99704.22;;;22.87
19061;BMP280;9663;48.996;8.334;2022-12-29T11:41:54;99718.75;;;22.48
19061;BMP280;9663;48.996;8.334;2022-12-29T11:44:24;99703.53;;;22.14
19061;BMP280;9663;48.996;8.334;2022-12-29T11:46:52;99697.16;;;21.92
19061;BMP280;9663;48.996;8.334;2022-12-29T11:49:24;99690.91;;;21.67
19061;BMP280;9663;48.996;8.334;2022-12-29T11:51:53;99699.16;;;21.44
19061;BMP280;9663;48.996;8.334;2022-12-29T11:54:31;99710.47;;;21.26
19061;BMP280;9663;48.996;8.334;2022-12-29T11:57:09;99704.56;;;21.09
19061;BMP280;9663;48.996;8.334;2022-12-29T11:59:41;99691.09;;;21.04
19061;BMP280;9663;48.996;8.334;2022-12-29T12:02:41;99696.84;;;20.94
19061;BMP280;9663;48.996;8.334;2022-12-29T12:08:19;99695.25;;;20.76
19061;BMP280;9663;48.996;8.334;2022-12-29T12:11:13;99705.63;;;20.90
19061;BMP280;9663;48.996;8.334;2022-12-29T12:13:50;99687.19;;;21.12
19061;BMP280;9663;48.996;8.334;2022-12-29T12:16:44;99679.91;;;21.49
19061;BMP280;9663;48.996;8.334;2022-12-29T12:19:38;99681.09;;;21.44
19061;BMP280;9663;48.996;8.334;2022-12-29T12:22:37;99694.09;;;21.12
19061;BMP280;9663;48.996;8.334;2022-12-29T12:25:21;99683.94;;;20.78
19061;BMP280;9663;48.996;8.334;2022-12-29T12:30:45;99698.41;;;20.33
19061;BMP280;9663;48.996;8.334;2022-12-29T12:33:30;99688.81;;;20.20
19061;BMP280;9663;48.996;8.334;2022-12-29T12:36:13;99693.59;;;20.11
19061;BMP280;9663;48.996;8.334;2022-12-29T12:42:06;99693.50;;;19.78
19061;BMP280;9663;48.996;8.334;2022-12-29T12:45:26;99698.53;;;19.65
19061;BMP280;9663;48.996;8.334;2022-12-29T12:59:26;99688.72;;;19.37
19061;BMP280;9663;48.996;8.334;2022-12-29T13:02:36;99675.44;;;19.29
19061;BMP280;9663;48.996;8.334;2022-12-29T13:17:25;99676.25;;;19.30
19061;BMP280;9663;48.996;8.334;2022-12-29T13:28:55;99701.78;;;18.98
19061;BMP280;9663;48.996;8.334;2022-12-29T13:37:34;99695.13;;;18.57
19061;BMP280;9663;48.996;8.334;2022-12-29T13:40:13;99709.41;;;18.44
19061;BMP280;9663;48.996;8.334;2022-12-29T13:42:42;99707.38;;;18.33
19061;BMP280;9663;48.996;8.334;2022-12-29T13:45:18;99708.72;;;18.21
19061;BMP280;9663;48.996;8.334;2022-12-29T13:48:02;99720.28;;;18.11
19061;BMP280;9663;48.996;8.334;2022-12-29T13:50:36;99712.00;;;18.05
19061;BMP280;9663;48.996;8.334;2022-12-29T13:56:18;99724.31;;;17.57
19061;BMP280;9663;48.996;8.334;2022-12-29T14:01:45;99730.00;;;17.00
19061;BMP280;9663;48.996;8.334;2022-12-29T14:04:22;99710.31;;;16.79
19061;BMP280;9663;48.996;8.334;2022-12-29T14:07:04;99740.16;;;16.58
19061;BMP280;9663;48.996;8.334;2022-12-29T14:10:18;99737.34;;;16.41
19061;BMP280;9663;48.996;8.334;2022-12-29T14:12:42;99744.84;;;16.23
19061;BMP280;9663;48.996;8.334;2022-12-29T14:17:39;99737.94;;;16.00
19061;BMP280;9663;48.996;8.334;2022-12-29T14:20:22;99753.63;;;15.90
19061;BMP280;9663;48.996;8.334;2022-12-29T14:28:47;99772.03;;;15.49
19061;BMP280;9663;48.996;8.334;2022-12-29T14:31:33;99761.34;;;15.37
19061;BMP280;9663;48.996;8.334;2022-12-29T14:36:54;99762.00;;;15.15
19061;BMP280;9663;48.996;8.334;2022-12-29T14:39:44;99781.91;;;15.05
19061;BMP280;9663;48.996;8.334;2022-12-29T14:47:41;99770.16;;;14.98
19061;BMP280;9663;48.996;8.334;2022-12-29T14:50:17;99783.78;;;14.99
19061;BMP280;9663;48.996;8.334;2022-12-29T14:53:00;99781.19;;;15.00
19061;BMP280;9663;48.996;8.334;2022-12-29T14:55:47;99784.53;;;15.02
19061;BMP280;9663;48.996;8.334;2022-12-29T14:58:29;99787.81;;;15.06
19061;BMP280;9663;48.996;8.334;2022-12-29T15:00:58;99770.72;;;15.08
19061;BMP280;9663;48.996;8.334;2022-12-29T15:03:32;99777.44;;;15.12
19061;BMP280;9663;48.996;8.334;2022-12-29T15:06:05;99768.00;;;15.14
19061;BMP280;9663;48.996;8.334;2022-12-29T15:08:50;99779.88;;;15.15
19061;BMP280;9663;48.996;8.334;2022-12-29T15:11:48;99795.25;;;15.13
19061;BMP280;9663;48.996;8.334;2022-12-29T15:16:54;99795.06;;;15.21
19061;BMP280;9663;48.996;8.334;2022-12-29T15:19:26;99788.94;;;15.26
19061;BMP280;9663;48.996;8.334;2022-12-29T15:21:54;99780.41;;;15.27
19061;BMP280;9663;48.996;8.334;2022-12-29T15:24:20;99786.28;;;15.29
19061;BMP280;9663;48.996;8.334;2022-12-29T15:26:51;99773.53;;;15.29
19061;BMP280;9663;48.996;8.334;2022-12-29T15:29:39;99794.03;;;15.26
19061;BMP280;9663;48.996;8.334;2022-12-29T15:32:43;99800.13;;;15.22
19061;BMP280;9663;48.996;8.334;2022-12-29T15:35:26;99801.81;;;15.23
19061;BMP280;9663;48.996;8.334;2022-12-29T15:37:52;99800.09;;;15.24
19061;BMP280;9663;48.996;8.334;2022-12-29T15:40:30;99806.97;;;15.22
19061;BMP280;9663;48.996;8.334;2022-12-29T15:43:37;99814.00;;;15.14
19061;BMP280;9663;48.996;8.334;2022-12-29T15:46:06;99813.09;;;15.15
19061;BMP280;9663;48.996;8.334;2022-12-29T15:48:32;99824.97;;;15.17
19061;BMP280;9663;48.996;8.334;2022-12-29T15:50:59;99816.44;;;15.18
19061;BMP280;9663;48.996;8.334;2022-12-29T15:53:32;99816.34;;;15.21
19061;BMP280;9663;48.996;8.334;2022-12-29T15:56:05;99819.75;;;15.22
19061;BMP280;9663;48.996;8.334;2022-12-29T15:58:50;99824.81;;;15.23
19061;BMP280;9663;48.996;8.334;2022-12-29T16:01:34;99823.13;;;15.22
19061;BMP280;9663;48.996;8.334;2022-12-29T16:04:07;99829.94;;;15.23
19061;BMP280;9663;48.996;8.334;2022-12-29T16:06:38;99844.34;;;15.24
19061;BMP280;9663;48.996;8.334;2022-12-29T16:09:15;99842.53;;;15.28
19061;BMP280;9663;48.996;8.334;2022-12-29T16:11:58;99848.50;;;15.28
19061;BMP280;9663;48.996;8.334;2022-12-29T16:14:44;99845.88;;;15.30
19061;BMP280;9663;48.996;8.334;2022-12-29T16:17:15;99853.50;;;15.31
19061;BMP280;9663;48.996;8.334;2022-12-29T16:20:23;99850.13;;;15.31
19061;BMP280;9663;48.996;8.334;2022-12-29T16:22:57;99851.75;;;15.33
19061;BMP280;9663;48.996;8.334;2022-12-29T16:25:33;99854.25;;;15.35
19061;BMP280;9663;48.996;8.334;2022-12-29T16:28:02;99860.22;;;15.35
19061;BMP280;9663;48.996;8.334;2022-12-29T16:30:39;99859.31;;;15.36
19061;BMP280;9663;48.996;8.334;2022-12-29T16:33:05;99852.53;;;15.35
19061;BMP280;9663;48.996;8.334;2022-12-29T16:38:22;99859.34;;;15.35
19061;BMP280;9663;48.996;8.334;2022-12-29T16:40:56;99860.22;;;15.35
19061;BMP280;9663;48.996;8.334;2022-12-29T16:43:29;99863.59;;;15.36
19061;BMP280;9663;48.996;8.334;2022-12-29T16:48:29;99861.88;;;15.36
19061;BMP280;9663;48.996;8.334;2022-12-29T16:51:11;99861.03;;;15.36
19061;BMP280;9663;48.996;8.334;2022-12-29T16:53:41;99861.88;;;15.36
19061;BMP280;9663;48.996;8.334;2022-12-29T16:56:23;99863.59;;;15.36
19061;BMP280;9663;48.996;8.334;2022-12-29T17:01:47;99863.59;;;15.36
19061;BMP280;9663;48.996;8.334;2022-12-29T17:04:13;99862.72;;;15.37
19061;BMP280;9663;48.996;8.334;2022-12-29T17:06:40;99857.56;;;15.38
19061;BMP280;9663;48.996;8.334;2022-12-29T17:09:28;99866.97;;;15.36